createdAt,value
2018-12-14T00:01:36.320Z,17.30
2018-12-14T00:04:41.430Z,16.73
2018-12-14T00:07:46.458Z,16.67
2018-12-14T00:10:49.479Z,15.97
2018-12-14T00:13:52.524Z,16.63
2018-12-14T00:16:55.635Z,16.93
2018-12-14T00:19:58.643Z,16.03
2018-12-14T00:23:01.754Z,16.20
2018-12-14T00:26:04.746Z,15.80
2018-12-14T00:29:07.773Z,16.70
2018-12-14T00:32:11.002Z,15.83
2018-12-14T00:35:14.241Z,17.33
2018-12-14T00:38:17.354Z,17.40
2018-12-14T00:41:20.359Z,17.10
2018-12-14T00:44:23.462Z,17.80
2018-12-14T00:47:26.455Z,16.17
2018-12-14T00:50:29.481Z,16.40
2018-12-14T00:53:32.486Z,16.33
2018-12-14T00:56:35.524Z,16.90
2018-12-14T00:59:38.549Z,16.93
2018-12-14T01:02:41.578Z,16.13
2018-12-14T01:05:44.711Z,16.33
2018-12-14T01:08:47.811Z,18.00
2018-12-14T01:11:50.790Z,17.23
2018-12-14T01:14:53.818Z,17.93
2018-12-14T01:17:56.807Z,16.80
2018-12-14T01:20:59.835Z,16.13
2018-12-14T01:24:02.826Z,18.00
2018-12-14T01:27:05.839Z,17.53
2018-12-14T01:30:08.980Z,19.00
2018-12-14T01:33:12.086Z,18.50
2018-12-14T01:36:15.115Z,19.87
2018-12-14T01:39:18.175Z,18.73
2018-12-14T01:42:21.167Z,18.73
2018-12-14T01:45:24.199Z,18.90
2018-12-14T01:48:27.191Z,20.10
2018-12-14T01:51:30.414Z,19.17
2018-12-14T01:54:33.406Z,17.70
2018-12-14T01:57:36.648Z,19.33
2018-12-14T02:00:39.671Z,19.17
2018-12-14T02:03:42.654Z,20.53
2018-12-14T02:06:45.739Z,19.53
2018-12-14T02:09:48.864Z,19.53
2018-12-14T02:12:52.115Z,21.87
2018-12-14T02:15:55.113Z,18.70
2018-12-14T02:18:58.123Z,20.93
2018-12-14T02:22:01.111Z,21.00
2018-12-14T02:25:04.294Z,20.37
2018-12-14T02:28:07.300Z,20.53
2018-12-14T02:31:10.303Z,19.77
2018-12-14T02:34:13.303Z,20.47
2018-12-14T02:37:16.317Z,21.03
2018-12-14T02:40:19.351Z,20.23
2018-12-14T02:43:23.279Z,21.10
2018-12-14T02:46:26.298Z,21.13
2018-12-14T02:49:29.283Z,21.80
2018-12-14T02:52:32.274Z,22.33
2018-12-14T02:55:35.267Z,22.23
2018-12-14T02:58:38.261Z,21.90
2018-12-14T03:01:41.281Z,22.17
2018-12-14T03:04:44.290Z,22.73
2018-12-14T03:07:47.282Z,21.80
2018-12-14T03:10:50.271Z,19.67
2018-12-14T03:13:53.264Z,19.47
2018-12-14T03:16:56.610Z,20.40
2018-12-14T03:19:59.621Z,19.80
2018-12-14T03:23:02.636Z,20.13
2018-12-14T03:26:05.778Z,18.60
2018-12-14T03:29:08.771Z,19.03
2018-12-14T03:32:11.757Z,20.77
2018-12-14T03:35:14.761Z,17.97
2018-12-14T03:38:17.745Z,19.30
2018-12-14T03:41:20.783Z,18.57
2018-12-14T03:44:23.784Z,17.03
2018-12-14T03:47:26.731Z,17.17
2018-12-14T03:50:29.986Z,17.67
2018-12-14T03:53:32.903Z,18.57
2018-12-14T03:56:35.821Z,17.83
2018-12-14T03:59:38.745Z,18.20
2018-12-14T04:02:41.673Z,18.63
2018-12-14T04:05:44.764Z,18.50
2018-12-14T04:08:47.722Z,18.60
2018-12-14T04:11:53.629Z,17.87
2018-12-14T04:14:56.553Z,18.23
2018-12-14T04:17:59.481Z,17.73
2018-12-14T04:21:02.455Z,18.50
2018-12-14T04:24:05.382Z,18.67
2018-12-14T04:27:08.354Z,19.30
2018-12-14T04:30:11.291Z,17.43
2018-12-14T04:33:15.221Z,17.67
2018-12-14T04:36:18.141Z,19.07
2018-12-14T04:39:23.123Z,18.77
2018-12-14T04:42:26.291Z,18.60
2018-12-14T04:45:29.337Z,19.97
2018-12-14T04:48:32.261Z,19.73
2018-12-14T04:51:35.213Z,18.83
2018-12-14T04:54:38.143Z,19.27
2018-12-14T04:57:41.183Z,18.47
2018-12-14T05:00:44.102Z,19.23
2018-12-14T05:03:47.198Z,19.43
2018-12-14T05:06:50.122Z,18.83
2018-12-14T05:09:53.106Z,20.27
2018-12-14T05:12:56.387Z,19.70
2018-12-14T05:15:59.503Z,21.20
2018-12-14T05:19:02.439Z,19.13
2018-12-14T05:22:05.645Z,20.47
2018-12-14T05:25:08.574Z,22.30
2018-12-14T05:28:11.585Z,19.97
2018-12-14T05:31:14.529Z,20.33
2018-12-14T05:34:17.598Z,22.17
2018-12-14T05:37:20.653Z,21.33
2018-12-14T05:40:23.621Z,21.23
2018-12-14T05:43:26.550Z,20.93
2018-12-14T05:46:29.694Z,22.77
2018-12-14T05:49:32.618Z,21.70
2018-12-14T05:52:37.609Z,22.37
2018-12-14T05:55:40.598Z,21.73
2018-12-14T05:58:43.637Z,20.97
2018-12-14T06:01:46.578Z,20.43
2018-12-14T06:04:49.537Z,19.90
2018-12-14T06:07:52.462Z,19.53
2018-12-14T06:10:55.566Z,20.93
2018-12-14T06:13:58.531Z,18.03
2018-12-14T06:17:01.670Z,18.87
2018-12-14T06:20:05.238Z,18.43
2018-12-14T06:23:08.353Z,17.70
2018-12-14T06:26:11.314Z,17.17
2018-12-14T06:29:14.422Z,19.00
2018-12-14T06:32:17.342Z,17.17
2018-12-14T06:35:20.302Z,17.67
2018-12-14T06:38:23.267Z,17.77
2018-12-14T06:41:26.489Z,17.37
2018-12-14T06:44:29.449Z,17.07
2018-12-14T06:47:32.653Z,16.37
2018-12-14T06:50:35.658Z,15.83
2018-12-14T06:53:38.646Z,16.33
2018-12-14T06:56:41.586Z,15.47
2018-12-14T06:59:44.775Z,15.50
2018-12-14T07:02:47.701Z,15.97
2018-12-14T07:05:50.854Z,17.03
2018-12-14T07:08:53.789Z,14.83
2018-12-14T07:11:56.755Z,15.00
2018-12-14T07:14:59.834Z,15.70
2018-12-14T07:18:03.054Z,15.47
2018-12-14T07:21:06.088Z,15.60
2018-12-14T07:24:09.281Z,16.07
2018-12-14T07:27:12.210Z,15.60
2018-12-14T07:30:15.393Z,14.93
2018-12-14T07:33:18.326Z,15.10
2018-12-14T07:36:21.297Z,14.50
2018-12-14T07:39:24.215Z,14.47
2018-12-14T07:42:27.338Z,14.60
2018-12-14T07:45:30.287Z,13.73
2018-12-14T07:48:33.258Z,13.90
2018-12-14T07:51:36.370Z,14.20
2018-12-14T07:54:39.414Z,14.87
2018-12-14T07:57:42.333Z,13.83
2018-12-14T08:00:45.331Z,13.20
2018-12-14T08:03:48.410Z,13.03
2018-12-14T08:06:51.471Z,13.23
2018-12-14T08:09:54.402Z,13.23
2018-12-14T08:12:57.941Z,12.53
2018-12-14T08:16:00.870Z,12.67
2018-12-14T08:19:03.825Z,11.17
2018-12-14T08:22:06.772Z,12.73
2018-12-14T08:25:09.697Z,12.10
2018-12-14T08:28:12.613Z,12.77
2018-12-14T08:31:15.563Z,10.53
2018-12-14T08:34:18.493Z,11.77
2018-12-14T08:37:21.418Z,11.20
2018-12-14T08:40:24.384Z,10.70
2018-12-14T08:43:27.302Z,11.13
2018-12-14T08:46:30.221Z,11.00
2018-12-14T08:49:33.141Z,10.90
2018-12-14T08:52:36.060Z,11.77
2018-12-14T08:55:38.973Z,11.60
2018-12-14T08:58:41.976Z,11.90
2018-12-14T09:01:44.929Z,11.23
2018-12-14T09:04:47.850Z,11.90
2018-12-14T09:07:50.765Z,11.37
2018-12-14T09:10:53.751Z,9.90
2018-12-14T09:13:56.661Z,10.90
2018-12-14T09:16:59.732Z,10.40
2018-12-14T09:20:02.821Z,10.90
2018-12-14T09:23:06.029Z,10.93
2018-12-14T09:26:09.286Z,10.73
2018-12-14T09:29:12.458Z,9.73
2018-12-14T09:32:15.553Z,10.70
2018-12-14T09:35:18.526Z,10.10
2018-12-14T09:38:21.715Z,10.13
2018-12-14T09:41:24.737Z,10.00
2018-12-14T09:44:27.851Z,9.17
2018-12-14T09:47:30.863Z,9.63
2018-12-14T09:50:33.875Z,9.80
2018-12-14T09:53:36.894Z,10.23
2018-12-14T09:56:40.091Z,9.63
2018-12-14T09:59:43.167Z,9.50
2018-12-14T10:02:46.155Z,9.17
2018-12-14T10:05:49.183Z,9.10
2018-12-14T10:08:52.177Z,9.67
2018-12-14T10:11:55.604Z,9.43
2018-12-14T10:14:59.038Z,9.33
2018-12-14T10:18:02.374Z,9.43
2018-12-14T10:21:06.472Z,9.10
2018-12-14T10:24:09.459Z,9.40
2018-12-14T10:27:12.707Z,9.90
2018-12-14T10:30:15.859Z,9.27
2018-12-14T10:33:18.957Z,17.30
2018-12-14T10:36:21.951Z,9.10
2018-12-14T10:39:25.067Z,9.13
2018-12-14T10:42:28.067Z,10.50
2018-12-14T10:45:31.547Z,9.80
2018-12-14T10:48:34.535Z,9.17
2018-12-14T10:51:37.807Z,8.83
2018-12-14T10:54:41.143Z,9.33
2018-12-14T10:57:44.315Z,10.03
2018-12-14T11:00:53.784Z,9.37
2018-12-14T11:03:56.799Z,9.87
2018-12-14T11:06:59.846Z,9.53
2018-12-14T11:10:02.911Z,10.27
2018-12-14T11:13:07.067Z,10.33
2018-12-14T11:16:10.055Z,9.03
2018-12-14T11:19:13.071Z,8.50
2018-12-14T11:22:16.064Z,9.43
2018-12-14T11:25:19.179Z,9.33
2018-12-14T11:28:22.155Z,10.27
2018-12-14T11:31:25.175Z,9.30
2018-12-14T11:34:29.788Z,8.90
2018-12-14T11:37:33.272Z,8.50
2018-12-14T11:40:36.293Z,10.40
2018-12-14T11:43:39.408Z,10.53
2018-12-14T11:46:42.397Z,10.20
2018-12-14T11:49:45.527Z,11.37
2018-12-14T11:52:48.535Z,9.50
2018-12-14T11:55:51.579Z,10.27
2018-12-14T11:58:54.575Z,9.10
2018-12-14T12:01:57.691Z,9.67
2018-12-14T12:05:00.679Z,8.60
2018-12-14T12:08:03.759Z,9.40
2018-12-14T12:11:06.763Z,8.97
2018-12-14T12:14:09.792Z,8.47
2018-12-14T12:17:12.792Z,9.53
2018-12-14T12:20:15.842Z,9.27
2018-12-14T12:23:18.859Z,9.07
2018-12-14T12:26:21.979Z,9.30
2018-12-14T12:29:24.979Z,8.63
2018-12-14T12:32:28.169Z,9.37
2018-12-14T12:35:31.172Z,8.80
2018-12-14T12:38:38.160Z,9.10
2018-12-14T12:41:39.239Z,9.80
2018-12-14T12:44:42.280Z,9.50
2018-12-14T12:47:45.280Z,9.33
2018-12-14T12:50:49.622Z,10.23
2018-12-14T12:53:52.632Z,9.37
2018-12-14T12:56:55.715Z,9.73
2018-12-14T12:59:58.723Z,10.20
2018-12-14T13:03:01.762Z,8.97
2018-12-14T13:06:04.775Z,9.50
2018-12-14T13:09:08.036Z,11.23
2018-12-14T13:12:12.210Z,11.17
2018-12-14T13:15:15.327Z,11.60
2018-12-14T13:18:18.320Z,13.67
2018-12-14T13:21:21.335Z,13.17
2018-12-14T13:24:24.339Z,13.47
2018-12-14T13:27:28.191Z,14.80
2018-12-14T13:30:31.243Z,14.30
2018-12-14T13:33:34.414Z,14.03
2018-12-14T13:36:37.506Z,14.40
2018-12-14T13:39:40.828Z,16.53
2018-12-14T13:42:44.353Z,14.47
2018-12-14T13:45:47.571Z,15.70
2018-12-14T13:48:50.636Z,16.53
2018-12-14T13:51:53.659Z,15.87
2018-12-14T13:54:56.661Z,16.30
2018-12-14T13:57:59.664Z,16.30
2018-12-14T14:01:02.742Z,16.93
2018-12-14T14:04:05.758Z,17.50
2018-12-14T14:07:08.758Z,18.20
2018-12-14T14:10:11.910Z,17.50
2018-12-14T14:13:14.907Z,16.77
2018-12-14T14:16:17.906Z,18.40
2018-12-14T14:19:21.655Z,18.97
2018-12-14T14:22:24.903Z,18.73
2018-12-14T14:25:28.266Z,20.83
2018-12-14T14:28:31.298Z,20.27
2018-12-14T14:31:40.858Z,21.87
2018-12-14T14:34:44.768Z,22.53
2018-12-14T14:37:47.759Z,21.97
2018-12-14T14:40:50.795Z,22.87
2018-12-14T14:43:53.838Z,20.43
2018-12-14T14:46:56.847Z,19.80
2018-12-14T14:49:59.868Z,20.87
2018-12-14T14:53:02.862Z,20.27
2018-12-14T14:56:05.915Z,23.17
2018-12-14T14:59:08.981Z,21.97
2018-12-14T15:02:11.995Z,21.73
2018-12-14T15:05:14.999Z,21.83
2018-12-14T15:08:18.003Z,22.80
2018-12-14T15:11:21.033Z,22.50
2018-12-14T15:14:24.031Z,23.03
2018-12-14T15:17:27.023Z,20.50
2018-12-14T15:20:31.048Z,21.50
2018-12-14T15:23:34.134Z,20.90
2018-12-14T15:26:37.156Z,19.53
2018-12-14T15:29:40.154Z,20.90
2018-12-14T15:32:43.302Z,20.87
2018-12-14T15:35:46.287Z,21.67
2018-12-14T15:38:49.282Z,20.30
2018-12-14T15:41:52.294Z,20.13
2018-12-14T15:44:55.287Z,20.73
2018-12-14T15:47:58.265Z,20.07
2018-12-14T15:51:01.214Z,19.30
2018-12-14T15:54:04.146Z,19.97
2018-12-14T15:57:08.258Z,20.23
2018-12-14T16:00:11.453Z,19.73
2018-12-14T16:03:14.393Z,21.43
2018-12-14T16:06:17.463Z,20.87
2018-12-14T16:09:21.075Z,21.20
2018-12-14T16:12:24.141Z,20.83
2018-12-14T16:15:27.136Z,20.37
2018-12-14T16:18:30.068Z,22.03
2018-12-14T16:21:33.015Z,21.27
2018-12-14T16:24:35.954Z,20.43
2018-12-14T16:27:39.199Z,20.90
2018-12-14T16:30:42.109Z,18.13
2018-12-14T16:33:45.046Z,21.23
2018-12-14T16:36:47.974Z,19.43
2018-12-14T16:39:51.010Z,20.97
2018-12-14T16:42:53.931Z,20.70
2018-12-14T16:45:56.883Z,20.43
2018-12-14T16:48:59.874Z,19.17
2018-12-14T16:52:02.997Z,19.67
2018-12-14T16:55:07.258Z,21.23
2018-12-14T16:58:10.222Z,20.13
2018-12-14T17:01:13.156Z,19.63
2018-12-14T17:04:16.331Z,20.10
2018-12-14T17:07:19.386Z,21.03
2018-12-14T17:10:22.398Z,19.70
2018-12-14T17:13:25.337Z,23.50
2018-12-14T17:16:28.409Z,22.73
2018-12-14T17:19:31.341Z,21.73
2018-12-14T17:22:34.417Z,21.20
2018-12-14T17:25:37.346Z,19.83
2018-12-14T17:28:40.417Z,21.93
2018-12-14T17:31:43.349Z,20.50
2018-12-14T17:34:46.482Z,18.20
2018-12-14T17:37:51.448Z,19.03
2018-12-14T17:40:54.733Z,20.83
2018-12-14T17:43:57.669Z,19.23
2018-12-14T17:47:00.790Z,19.47
2018-12-14T17:50:04.209Z,20.87
2018-12-14T17:53:07.178Z,19.40
2018-12-14T17:56:10.109Z,20.03
2018-12-14T17:59:13.065Z,21.40
2018-12-14T18:02:16.062Z,20.73
2018-12-14T18:05:19.049Z,19.03
2018-12-14T18:08:21.998Z,21.20
2018-12-14T18:11:25.037Z,19.53
2018-12-14T18:14:27.971Z,20.43
2018-12-14T18:17:30.950Z,19.40
2018-12-14T18:20:33.901Z,24.83
2018-12-14T18:23:36.953Z,19.47
2018-12-14T18:26:40.029Z,20.10
2018-12-14T18:29:43.002Z,20.67
2018-12-14T18:32:46.047Z,18.97
2018-12-14T18:35:49.041Z,19.43
2018-12-14T18:38:51.966Z,22.17
2018-12-14T18:41:54.966Z,20.33
2018-12-14T18:44:57.897Z,21.03
2018-12-14T18:48:00.878Z,21.37
2018-12-14T18:51:03.846Z,20.37
2018-12-14T18:54:06.817Z,18.83
2018-12-14T18:57:09.766Z,19.47
2018-12-14T19:00:12.773Z,19.53
2018-12-14T19:03:15.725Z,18.90
2018-12-14T19:06:18.675Z,17.57
2018-12-14T19:09:21.610Z,19.80
2018-12-14T19:12:24.929Z,19.70
2018-12-14T19:15:27.966Z,20.13
2018-12-14T19:18:30.923Z,18.50
2018-12-14T19:21:33.846Z,20.17
2018-12-14T19:24:36.882Z,18.97
2018-12-14T19:27:39.950Z,17.93
2018-12-14T19:30:42.943Z,18.97
2018-12-14T19:33:46.000Z,19.47
2018-12-14T19:36:48.953Z,18.73
2018-12-14T19:39:51.884Z,18.70
2018-12-14T19:42:55.041Z,18.07
2018-12-14T19:45:57.958Z,19.17
2018-12-14T19:49:00.894Z,17.63
2018-12-14T19:52:04.306Z,17.67
2018-12-14T19:55:07.446Z,17.53
2018-12-14T19:58:10.398Z,18.70
2018-12-14T20:01:13.338Z,16.93
2018-12-14T20:04:16.270Z,17.33
2018-12-14T20:07:19.209Z,17.17
2018-12-14T20:10:22.129Z,17.53
2018-12-14T20:13:25.122Z,16.90
2018-12-14T20:16:28.085Z,17.10
2018-12-14T20:19:31.121Z,16.93
2018-12-14T20:22:34.109Z,17.53
2018-12-14T20:25:37.037Z,15.50
2018-12-14T20:28:39.951Z,16.13
2018-12-14T20:31:42.873Z,16.43
2018-12-14T20:34:45.969Z,16.97
2018-12-14T20:37:49.145Z,17.10
2018-12-14T20:40:52.066Z,16.67
2018-12-14T20:43:55.091Z,16.13
2018-12-14T20:47:00.157Z,15.73
2018-12-14T20:53:36.016Z,15.63
2018-12-14T20:56:40.709Z,16.00
2018-12-14T20:59:43.977Z,16.70
2018-12-14T21:02:48.297Z,16.40
2018-12-14T21:05:51.597Z,15.53
2018-12-14T21:08:54.893Z,15.20
2018-12-14T21:11:59.113Z,15.87
2018-12-14T21:15:03.847Z,15.40
2018-12-14T21:18:07.050Z,16.40
2018-12-14T21:21:10.261Z,15.53
2018-12-14T21:24:13.437Z,15.70
2018-12-14T21:27:16.730Z,15.07
2018-12-14T21:30:20.946Z,15.10
2018-12-14T21:33:24.145Z,14.83
2018-12-14T21:36:27.338Z,13.53
2018-12-14T21:39:33.915Z,14.17
2018-12-14T21:42:37.110Z,14.80
2018-12-14T21:45:40.304Z,14.57
2018-12-14T21:48:43.554Z,14.13
2018-12-14T21:51:46.714Z,13.70
2018-12-14T21:54:50.123Z,13.30
2018-12-14T21:57:53.655Z,14.10
2018-12-14T22:00:56.810Z,13.87
2018-12-14T22:04:00.018Z,13.87
2018-12-14T22:07:03.203Z,14.73
2018-12-14T22:10:07.726Z,14.30
2018-12-14T22:13:10.916Z,13.13
2018-12-14T22:16:14.119Z,13.13
2018-12-14T22:19:17.314Z,14.47
2018-12-14T22:22:20.517Z,14.20
2018-12-14T22:25:23.710Z,12.57
2018-12-14T22:28:26.909Z,12.73
2018-12-14T22:31:30.094Z,12.70
2018-12-14T22:34:33.302Z,12.03
2018-12-14T22:37:37.145Z,11.90
2018-12-14T22:40:40.310Z,11.70
2018-12-14T22:43:43.485Z,12.87
2018-12-14T22:46:46.681Z,11.27
2018-12-14T22:49:49.982Z,10.83
2018-12-14T22:52:53.177Z,12.13
2018-12-14T22:55:56.374Z,12.53
2018-12-14T22:58:59.566Z,12.83
2018-12-14T23:02:02.762Z,12.33
2018-12-14T23:05:07.193Z,11.90
2018-12-14T23:08:10.383Z,11.10
2018-12-14T23:11:13.574Z,11.97
2018-12-14T23:14:16.781Z,11.97
2018-12-14T23:17:19.966Z,11.30
2018-12-14T23:20:23.162Z,14.07
2018-12-14T23:23:26.396Z,12.37
2018-12-14T23:26:29.753Z,13.10
2018-12-14T23:29:32.941Z,12.50
2018-12-14T23:32:36.278Z,13.10
2018-12-14T23:35:39.454Z,12.20
2018-12-14T23:38:42.733Z,13.27
2018-12-14T23:41:45.935Z,13.20
2018-12-14T23:44:49.166Z,12.77
2018-12-14T23:47:53.355Z,11.90
2018-12-14T23:50:56.618Z,11.67
2018-12-14T23:53:59.745Z,11.27
2018-12-14T23:57:02.967Z,11.30
